createdAt,value
2023-03-27T05:35:33.279Z,1012.33
2023-03-27T05:36:33.566Z,1012.38
2023-03-27T05:37:33.877Z,1012.36
2023-03-27T05:38:34.173Z,1012.42
2023-03-27T05:39:34.453Z,1012.44
2023-03-27T05:40:34.740Z,1012.43
2023-03-27T05:41:35.043Z,1012.42
2023-03-27T05:42:35.375Z,1012.45
2023-03-27T05:43:35.702Z,1012.44
2023-03-27T05:44:36.009Z,1012.42
2023-03-27T05:45:36.316Z,1012.49
2023-03-27T05:46:36.641Z,1012.52
2023-03-27T05:48:36.089Z,1012.58
2023-03-27T05:49:36.411Z,1012.54
2023-03-27T05:50:36.710Z,1012.53
2023-03-27T05:51:36.988Z,1012.64
2023-03-27T05:52:37.304Z,1012.53
2023-03-27T05:53:37.656Z,1012.53
2023-03-27T05:54:38.007Z,1012.55
2023-03-27T05:55:38.197Z,1012.63
2023-03-27T05:56:38.550Z,1012.58
2023-03-27T05:57:38.822Z,1012.61
2023-03-27T05:58:39.195Z,1012.67
2023-03-27T05:59:39.349Z,1012.60
2023-03-27T06:00:39.634Z,1012.66
2023-03-27T06:01:40.014Z,1012.66
2023-03-27T06:02:40.340Z,1012.61
2023-03-27T06:03:40.683Z,1012.59
2023-03-27T06:04:40.903Z,1012.57
2023-03-27T06:05:41.205Z,1012.60
2023-03-27T06:06:41.497Z,1012.68
2023-03-27T06:07:43.258Z,1012.66
2023-03-27T06:08:42.090Z,1012.69
2023-03-27T06:09:42.415Z,1012.68
2023-03-27T06:10:42.647Z,1012.71
2023-03-27T06:11:42.873Z,1012.73
2023-03-27T06:12:43.136Z,1012.74
2023-03-27T06:13:43.416Z,1012.70
2023-03-27T06:14:43.768Z,1012.72
2023-03-27T06:15:44.074Z,1012.73
2023-03-27T06:16:44.380Z,1012.75
2023-03-27T06:17:44.755Z,1012.69
2023-03-27T06:18:44.919Z,1012.74
2023-03-27T06:19:45.207Z,1012.77
2023-03-27T06:20:45.512Z,1012.75
2023-03-27T06:21:45.849Z,1012.79
2023-03-27T06:22:46.197Z,1012.80
2023-03-27T06:23:46.483Z,1012.84
2023-03-27T06:24:46.792Z,1012.90
2023-03-27T06:25:47.137Z,1012.86
2023-03-27T06:26:47.374Z,1012.83
2023-03-27T06:27:47.722Z,1012.80
2023-03-27T06:28:48.021Z,1012.93
2023-03-27T06:29:48.354Z,1012.86
2023-03-27T06:30:48.752Z,1012.90
2023-03-27T06:31:49.045Z,1012.90
2023-03-27T06:32:49.366Z,1012.84
2023-03-27T06:33:49.502Z,1012.87
2023-03-27T06:34:49.836Z,1012.86
2023-03-27T06:35:52.550Z,1012.87
2023-03-27T06:36:50.482Z,1012.87
2023-03-27T06:37:51.354Z,1012.88
2023-03-27T06:38:51.211Z,1012.89
2023-03-27T06:39:51.401Z,1012.88
2023-03-27T06:40:51.605Z,1012.90
2023-03-27T06:41:51.942Z,1012.86
2023-03-27T06:42:52.319Z,1012.89
2023-03-27T06:43:52.598Z,1012.88
2023-03-27T06:44:52.916Z,1012.95
2023-03-27T06:45:53.221Z,1012.95
2023-03-27T06:46:53.597Z,1012.98
2023-03-27T06:47:55.586Z,1013.02
2023-03-27T06:48:54.041Z,1013.00
2023-03-27T06:49:54.338Z,1013.00
2023-03-27T06:50:54.783Z,1013.03
2023-03-27T06:51:54.981Z,1013.04
2023-03-27T06:52:55.317Z,1013.07
2023-03-27T06:53:55.637Z,1013.10
2023-03-27T06:54:55.979Z,1013.13
2023-03-27T06:55:56.722Z,1013.16
2023-03-27T06:56:56.617Z,1013.10
2023-03-27T06:57:56.924Z,1013.18
2023-03-27T06:58:57.295Z,1013.24
2023-03-27T06:59:59.088Z,1013.29
2023-03-27T07:00:57.769Z,1013.25
2023-03-27T07:01:58.113Z,1013.23
2023-03-27T07:02:58.423Z,1013.28
2023-03-27T07:03:58.774Z,1013.25
2023-03-27T07:05:04.918Z,1013.37
2023-03-27T07:06:00.689Z,1013.42
2023-03-27T07:06:59.507Z,1013.33
2023-03-27T07:08:05.494Z,1013.39
2023-03-27T07:09:01.106Z,1013.38
2023-03-27T07:10:00.467Z,1013.45
2023-03-27T07:12:01.973Z,1013.44
2023-03-27T07:13:01.292Z,1013.46
2023-03-27T07:14:01.645Z,1013.55
2023-03-27T07:15:01.934Z,1013.48
2023-03-27T07:16:02.244Z,1013.55
2023-03-27T07:17:02.569Z,1013.50
2023-03-27T07:18:02.969Z,1013.56
2023-03-27T07:19:03.169Z,1013.52
2023-03-27T07:20:03.379Z,1013.59
2023-03-27T07:21:03.859Z,1013.56
2023-03-27T07:22:03.941Z,1013.72
2023-03-27T07:23:04.258Z,1013.70
2023-03-27T07:24:04.665Z,1013.64
2023-03-27T07:25:04.870Z,1013.71
2023-03-27T07:26:05.187Z,1013.63
2023-03-27T07:27:05.516Z,1013.70
2023-03-27T07:28:06.339Z,1013.76
2023-03-27T07:29:06.138Z,1013.71
2023-03-27T07:30:06.428Z,1013.75
2023-03-27T07:31:13.543Z,1013.74
2023-03-27T07:32:09.347Z,1013.74
2023-03-27T07:33:07.436Z,1013.75
2023-03-27T07:34:08.766Z,1013.74
2023-03-27T07:35:07.965Z,1013.82
2023-03-27T07:36:08.356Z,1013.77
2023-03-27T07:37:08.605Z,1013.86
2023-03-27T07:38:08.956Z,1013.84
2023-03-27T07:39:09.255Z,1013.80
2023-03-27T07:40:09.569Z,1013.79
2023-03-27T07:41:09.918Z,1013.75
2023-03-27T07:42:10.110Z,1013.85
2023-03-27T07:43:10.441Z,1013.81
2023-03-27T07:44:10.730Z,1013.79
2023-03-27T07:45:11.070Z,1013.80
2023-03-27T07:46:11.492Z,1013.90
2023-03-27T07:47:11.733Z,1013.84
2023-03-27T07:48:12.041Z,1013.83
2023-03-27T07:49:12.418Z,1013.90
2023-03-27T07:50:12.737Z,1013.80
2023-03-27T07:51:14.344Z,1013.86
2023-03-27T07:52:15.269Z,1013.76
